Orlando, FL

3:26 AM EST on February 27, 2015 (GMT -0500)
Kissimmee Municipal | Change Station
CLOSE
Current Station
Airport
Location: Kissimmee,
Elevation: 82 ft
Nearby Weather Stations

Elev 82 ft 28.29 °N, 81.44 °W | Updated 5 hours ago

Overcast
Overcast
59 °F
Feels Like 59 °F
N
5
Wind Variable Wind from NNE

Today
High -- | Low -- °F
--% Chance of Precip.
Yesterday
High -- | Low -- °F
Precip. -- in
6:52 AM 6:24 PM
Waxing Gibbous, 66% visible
Pressure 30.06 in
Visibility 10.0 miles
Clouds Mostly Cloudy 2400 ft
Overcast 5000 ft
Dew Point 55 °F
Humidity 88%
Rainfall 0.00 in
Snow Depth Not available.
UV 0 out of 12
Pollen 6.00 out of 12
Air Quality Not available.
Flu Activity Not available.
METAR KISM 270250Z 02004KT 10SM BKN024 OVC050 15/13 A3006 RMK LAST

More Conditions Fewer Conditions

Pressure 30.06 in
Visibility 10.0 miles
Clouds Mostly Cloudy 2400 ft
Overcast 5000 ft
Dew Point 55 °F
Humidity 88%
Rainfall 0.00 in
Snow Depth Not available.
UV 0 out of 12
Pollen 6.00 out of 12
Air Quality Not available.
Flu Activity Not available.
METAR KISM 270250Z 02004KT 10SM BKN024 OVC050 15/13 A3006 RMK LAST

More Conditions Fewer Conditions

Nowcast | as of 9:49 PM EST on February 26, 2015

Persistent fast moving showers will continue to move toward the northeast at 35 to 40 mph south of a line from Palm Bay to Lake Marian...including Okeechobee...Indian River...Saint Lucie and Martin counties. This area is underneath strong upward forcing from a departing mid level...700 millibar...jet axis. Occasional heavy downpours will be possible through midnight and even into the early morning hours but conditions are not favorable for thunderstorms. Farther north...noticeably cooler air is overspreading lake...Volusia and the Orlando Metro with temperatures falling through the 50s overnight...into the upper 40s by sunrise. A low overcast there may produce a few sprinkles. Additional details...including graphics are available online at: http://www.Srh.NOAA.Gov/mlb/blog.Php

×

10-Day Weather Forecast

Almanac

Astronomy

Feb. 27, 2015 Rise Set
Actual Time
Civil Twilight
Nautical Twilight
Astronomical Twilight
Moon
Length of Visible Light
Length of Day
Tomorrow will be .
, % of the Moon is Illuminated

Today's Extremes

State Highs State Lows

Community

WunderPhotos

Upload Photos

1,800,649 photos uploaded!

WunderBlogs® & News

Nearby

Air Quality

  Air Quality AQ Index Pollutant
Not available.

Snow Depth

Station Depth Elevation

Earthquake Activity

City Distance Mag. Time & Date
Minimum magnitude displayed is 2.5.

Coastal Water Temperatures

Place Temperature

Nearby Weather Stations